sensor_id;sensor_type;location;lat;lon;timestamp;P1;durP1;ratioP1;P2;durP2;ratioP2
52724;SDS011;38621;52.830;6.914;2022-11-20T00:01:28;10.82;;;5.82;;
52724;SDS011;38621;52.830;6.914;2022-11-20T00:03:55;7.90;;;5.40;;
52724;SDS011;38621;52.830;6.914;2022-11-20T00:06:22;11.25;;;5.72;;
52724;SDS011;38621;52.830;6.914;2022-11-20T00:08:49;10.02;;;5.63;;
52724;SDS011;38621;52.830;6.914;2022-11-20T00:11:20;8.20;;;5.20;;
52724;SDS011;38621;52.830;6.914;2022-11-20T00:13:48;9.15;;;5.65;;
52724;SDS011;38621;52.830;6.914;2022-11-20T00:16:17;9.20;;;6.03;;
52724;SDS011;38621;52.830;6.914;2022-11-20T00:18:44;10.43;;;6.75;;
52724;SDS011;38621;52.830;6.914;2022-11-20T00:21:12;11.20;;;6.68;;
52724;SDS011;38621;52.830;6.914;2022-11-20T00:23:39;11.82;;;6.72;;
52724;SDS011;38621;52.830;6.914;2022-11-20T00:26:08;8.93;;;6.13;;
52724;SDS011;38621;52.830;6.914;2022-11-20T00:28:35;9.95;;;6.47;;
52724;SDS011;38621;52.830;6.914;2022-11-20T00:31:05;9.38;;;6.55;;
52724;SDS011;38621;52.830;6.914;2022-11-20T00:33:35;11.70;;;6.80;;
52724;SDS011;38621;52.830;6.914;2022-11-20T00:36:02;10.98;;;6.72;;
52724;SDS011;38621;52.830;6.914;2022-11-20T00:38:32;10.15;;;6.28;;
52724;SDS011;38621;52.830;6.914;2022-11-20T00:40:59;8.95;;;6.00;;
52724;SDS011;38621;52.830;6.914;2022-11-20T00:43:26;10.90;;;6.22;;
52724;SDS011;38621;52.830;6.914;2022-11-20T00:45:59;8.98;;;6.35;;
52724;SDS011;38621;52.830;6.914;2022-11-20T00:48:35;8.13;;;6.10;;
52724;SDS011;38621;52.830;6.914;2022-11-20T00:51:01;9.02;;;6.07;;
52724;SDS011;38621;52.830;6.914;2022-11-20T00:53:26;10.60;;;7.25;;
52724;SDS011;38621;52.830;6.914;2022-11-20T00:56:02;8.90;;;5.68;;
52724;SDS011;38621;52.830;6.914;2022-11-20T00:58:32;9.63;;;5.95;;
52724;SDS011;38621;52.830;6.914;2022-11-20T01:01:00;12.05;;;6.75;;
52724;SDS011;38621;52.830;6.914;2022-11-20T01:03:27;10.02;;;6.85;;
52724;SDS011;38621;52.830;6.914;2022-11-20T01:05:58;8.82;;;6.28;;
52724;SDS011;38621;52.830;6.914;2022-11-20T01:08:28;10.93;;;6.57;;
52724;SDS011;38621;52.830;6.914;2022-11-20T01:10:58;9.55;;;6.22;;
52724;SDS011;38621;52.830;6.914;2022-11-20T01:13:25;11.02;;;7.03;;
52724;SDS011;38621;52.830;6.914;2022-11-20T01:16:06;9.05;;;6.18;;
52724;SDS011;38621;52.830;6.914;2022-11-20T01:18:34;9.07;;;5.88;;
52724;SDS011;38621;52.830;6.914;2022-11-20T01:21:01;9.43;;;6.50;;
52724;SDS011;38621;52.830;6.914;2022-11-20T01:23:32;8.88;;;5.75;;
52724;SDS011;38621;52.830;6.914;2022-11-20T01:26:00;7.75;;;5.50;;
52724;SDS011;38621;52.830;6.914;2022-11-20T01:28:28;10.55;;;6.20;;
52724;SDS011;38621;52.830;6.914;2022-11-20T01:30:54;10.00;;;6.18;;
52724;SDS011;38621;52.830;6.914;2022-11-20T01:33:20;9.95;;;5.75;;
52724;SDS011;38621;52.830;6.914;2022-11-20T01:35:45;9.77;;;6.30;;
52724;SDS011;38621;52.830;6.914;2022-11-20T01:38:11;9.40;;;5.90;;
52724;SDS011;38621;52.830;6.914;2022-11-20T01:40:37;10.90;;;6.70;;
52724;SDS011;38621;52.830;6.914;2022-11-20T01:43:14;10.20;;;6.30;;
52724;SDS011;38621;52.830;6.914;2022-11-20T01:48:33;10.82;;;7.45;;
52724;SDS011;38621;52.830;6.914;2022-11-20T01:51:04;10.20;;;6.97;;
52724;SDS011;38621;52.830;6.914;2022-11-20T01:53:35;9.30;;;6.30;;
52724;SDS011;38621;52.830;6.914;2022-11-20T01:56:02;9.38;;;6.30;;
52724;SDS011;38621;52.830;6.914;2022-11-20T01:58:32;9.70;;;6.80;;
52724;SDS011;38621;52.830;6.914;2022-11-20T02:01:00;9.57;;;6.40;;
52724;SDS011;38621;52.830;6.914;2022-11-20T02:03:26;9.40;;;6.47;;
52724;SDS011;38621;52.830;6.914;2022-11-20T02:08:35;10.65;;;6.55;;
52724;SDS011;38621;52.830;6.914;2022-11-20T02:11:02;10.02;;;6.47;;
52724;SDS011;38621;52.830;6.914;2022-11-20T02:13:28;10.02;;;6.68;;
52724;SDS011;38621;52.830;6.914;2022-11-20T02:16:10;9.65;;;6.32;;
52724;SDS011;38621;52.830;6.914;2022-11-20T02:18:47;9.43;;;6.32;;
52724;SDS011;38621;52.830;6.914;2022-11-20T02:26:54;8.55;;;5.95;;
52724;SDS011;38621;52.830;6.914;2022-11-20T02:29:28;8.60;;;6.18;;
52724;SDS011;38621;52.830;6.914;2022-11-20T02:32:02;10.93;;;6.72;;
52724;SDS011;38621;52.830;6.914;2022-11-20T02:34:28;8.93;;;6.30;;
52724;SDS011;38621;52.830;6.914;2022-11-20T02:36:54;8.45;;;5.78;;
52724;SDS011;38621;52.830;6.914;2022-11-20T02:39:21;8.02;;;5.72;;
52724;SDS011;38621;52.830;6.914;2022-11-20T02:41:50;9.38;;;6.15;;
52724;SDS011;38621;52.830;6.914;2022-11-20T02:44:18;9.02;;;6.03;;
52724;SDS011;38621;52.830;6.914;2022-11-20T02:46:45;8.85;;;6.28;;
52724;SDS011;38621;52.830;6.914;2022-11-20T02:49:11;9.13;;;5.93;;
52724;SDS011;38621;52.830;6.914;2022-11-20T02:51:37;9.20;;;6.25;;
52724;SDS011;38621;52.830;6.914;2022-11-20T02:54:02;8.88;;;5.50;;
52724;SDS011;38621;52.830;6.914;2022-11-20T02:56:28;8.55;;;5.82;;
52724;SDS011;38621;52.830;6.914;2022-11-20T02:58:54;8.88;;;5.95;;
52724;SDS011;38621;52.830;6.914;2022-11-20T03:01:20;8.55;;;6.03;;
52724;SDS011;38621;52.830;6.914;2022-11-20T03:03:46;10.13;;;6.38;;
52724;SDS011;38621;52.830;6.914;2022-11-20T03:06:13;8.88;;;5.90;;
52724;SDS011;38621;52.830;6.914;2022-11-20T03:08:40;9.02;;;5.95;;
52724;SDS011;38621;52.830;6.914;2022-11-20T03:11:06;10.90;;;6.38;;
52724;SDS011;38621;52.830;6.914;2022-11-20T03:13:33;9.00;;;6.20;;
52724;SDS011;38621;52.830;6.914;2022-11-20T03:16:05;8.25;;;5.93;;
52724;SDS011;38621;52.830;6.914;2022-11-20T03:18:48;10.73;;;5.68;;
52724;SDS011;38621;52.830;6.914;2022-11-20T03:21:15;10.00;;;6.10;;
52724;SDS011;38621;52.830;6.914;2022-11-20T03:23:41;9.23;;;5.85;;
52724;SDS011;38621;52.830;6.914;2022-11-20T03:26:11;9.63;;;6.25;;
52724;SDS011;38621;52.830;6.914;2022-11-20T03:28:42;8.95;;;5.93;;
52724;SDS011;38621;52.830;6.914;2022-11-20T03:31:13;8.02;;;5.50;;
52724;SDS011;38621;52.830;6.914;2022-11-20T03:33:40;8.63;;;5.20;;
52724;SDS011;38621;52.830;6.914;2022-11-20T03:36:08;10.52;;;5.88;;
52724;SDS011;38621;52.830;6.914;2022-11-20T03:38:35;9.68;;;6.28;;
52724;SDS011;38621;52.830;6.914;2022-11-20T03:41:03;8.70;;;5.43;;
52724;SDS011;38621;52.830;6.914;2022-11-20T03:43:30;8.32;;;5.63;;
52724;SDS011;38621;52.830;6.914;2022-11-20T03:45:57;8.98;;;5.95;;
52724;SDS011;38621;52.830;6.914;2022-11-20T03:48:23;8.90;;;5.40;;
52724;SDS011;38621;52.830;6.914;2022-11-20T03:50:49;8.90;;;5.80;;
52724;SDS011;38621;52.830;6.914;2022-11-20T03:53:15;9.15;;;5.13;;
52724;SDS011;38621;52.830;6.914;2022-11-20T03:55:41;9.63;;;6.22;;
52724;SDS011;38621;52.830;6.914;2022-11-20T03:58:07;8.27;;;5.50;;
52724;SDS011;38621;52.830;6.914;2022-11-20T04:00:33;9.13;;;5.53;;
52724;SDS011;38621;52.830;6.914;2022-11-20T04:02:59;8.77;;;5.80;;
52724;SDS011;38621;52.830;6.914;2022-11-20T04:05:25;9.80;;;5.57;;
52724;SDS011;38621;52.830;6.914;2022-11-20T04:07:51;8.38;;;5.63;;
52724;SDS011;38621;52.830;6.914;2022-11-20T04:10:17;7.22;;;4.95;;
52724;SDS011;38621;52.830;6.914;2022-11-20T04:12:42;9.00;;;5.25;;
52724;SDS011;38621;52.830;6.914;2022-11-20T04:15:08;8.60;;;5.32;;
52724;SDS011;38621;52.830;6.914;2022-11-20T04:17:34;9.55;;;5.55;;
52724;SDS011;38621;52.830;6.914;2022-11-20T04:20:00;9.60;;;5.90;;
52724;SDS011;38621;52.830;6.914;2022-11-20T04:22:26;8.98;;;5.72;;
52724;SDS011;38621;52.830;6.914;2022-11-20T04:24:52;9.40;;;5.65;;
52724;SDS011;38621;52.830;6.914;2022-11-20T04:27:17;8.23;;;5.20;;
52724;SDS011;38621;52.830;6.914;2022-11-20T04:29:43;8.38;;;5.40;;
52724;SDS011;38621;52.830;6.914;2022-11-20T04:32:09;9.00;;;4.80;;
52724;SDS011;38621;52.830;6.914;2022-11-20T04:34:35;10.32;;;5.97;;
52724;SDS011;38621;52.830;6.914;2022-11-20T04:37:00;9.07;;;5.80;;
52724;SDS011;38621;52.830;6.914;2022-11-20T04:39:26;8.02;;;5.18;;
52724;SDS011;38621;52.830;6.914;2022-11-20T04:41:52;8.00;;;5.47;;
52724;SDS011;38621;52.830;6.914;2022-11-20T04:44:37;7.00;;;5.22;;
52724;SDS011;38621;52.830;6.914;2022-11-20T04:47:03;7.32;;;4.90;;
52724;SDS011;38621;52.830;6.914;2022-11-20T04:49:29;9.43;;;5.57;;
52724;SDS011;38621;52.830;6.914;2022-11-20T04:51:56;7.70;;;5.45;;
52724;SDS011;38621;52.830;6.914;2022-11-20T04:54:22;8.73;;;5.43;;
52724;SDS011;38621;52.830;6.914;2022-11-20T04:56:48;7.15;;;4.63;;
52724;SDS011;38621;52.830;6.914;2022-11-20T04:59:14;8.65;;;5.43;;
52724;SDS011;38621;52.830;6.914;2022-11-20T05:01:39;8.73;;;6.38;;
52724;SDS011;38621;52.830;6.914;2022-11-20T05:04:05;10.13;;;5.88;;
52724;SDS011;38621;52.830;6.914;2022-11-20T05:06:31;10.05;;;6.32;;
52724;SDS011;38621;52.830;6.914;2022-11-20T05:08:57;8.63;;;5.45;;
52724;SDS011;38621;52.830;6.914;2022-11-20T05:11:23;8.52;;;5.63;;
52724;SDS011;38621;52.830;6.914;2022-11-20T05:13:50;8.00;;;5.53;;
52724;SDS011;38621;52.830;6.914;2022-11-20T05:16:17;8.18;;;5.53;;
52724;SDS011;38621;52.830;6.914;2022-11-20T05:18:44;8.88;;;6.13;;
52724;SDS011;38621;52.830;6.914;2022-11-20T05:21:11;7.53;;;5.35;;
52724;SDS011;38621;52.830;6.914;2022-11-20T05:23:37;7.85;;;5.53;;
52724;SDS011;38621;52.830;6.914;2022-11-20T05:26:04;8.63;;;5.57;;
52724;SDS011;38621;52.830;6.914;2022-11-20T05:28:31;9.32;;;6.22;;
52724;SDS011;38621;52.830;6.914;2022-11-20T05:31:03;10.40;;;5.90;;
52724;SDS011;38621;52.830;6.914;2022-11-20T05:33:30;9.65;;;6.05;;
52724;SDS011;38621;52.830;6.914;2022-11-20T05:36:00;10.20;;;5.80;;
52724;SDS011;38621;52.830;6.914;2022-11-20T05:38:29;8.55;;;5.22;;
52724;SDS011;38621;52.830;6.914;2022-11-20T05:40:54;8.35;;;5.40;;
52724;SDS011;38621;52.830;6.914;2022-11-20T05:43:20;8.75;;;5.88;;
52724;SDS011;38621;52.830;6.914;2022-11-20T05:45:53;8.90;;;5.22;;
52724;SDS011;38621;52.830;6.914;2022-11-20T05:48:19;7.95;;;5.00;;
52724;SDS011;38621;52.830;6.914;2022-11-20T05:50:45;9.57;;;5.22;;
52724;SDS011;38621;52.830;6.914;2022-11-20T05:53:10;9.00;;;5.72;;
52724;SDS011;38621;52.830;6.914;2022-11-20T05:55:36;7.03;;;4.63;;
52724;SDS011;38621;52.830;6.914;2022-11-20T05:58:02;8.43;;;5.40;;
52724;SDS011;38621;52.830;6.914;2022-11-20T06:00:27;8.88;;;5.35;;
52724;SDS011;38621;52.830;6.914;2022-11-20T06:02:53;9.18;;;5.63;;
52724;SDS011;38621;52.830;6.914;2022-11-20T06:05:18;8.90;;;5.40;;
52724;SDS011;38621;52.830;6.914;2022-11-20T06:07:44;9.30;;;5.60;;
52724;SDS011;38621;52.830;6.914;2022-11-20T06:10:10;9.50;;;6.22;;
52724;SDS011;38621;52.830;6.914;2022-11-20T06:12:36;8.02;;;5.82;;
52724;SDS011;38621;52.830;6.914;2022-11-20T06:15:02;10.15;;;5.47;;
52724;SDS011;38621;52.830;6.914;2022-11-20T06:17:28;10.18;;;6.35;;
52724;SDS011;38621;52.830;6.914;2022-11-20T06:19:54;10.45;;;6.25;;
52724;SDS011;38621;52.830;6.914;2022-11-20T06:22:20;7.35;;;5.90;;
52724;SDS011;38621;52.830;6.914;2022-11-20T06:24:47;8.68;;;5.75;;
52724;SDS011;38621;52.830;6.914;2022-11-20T06:27:12;9.43;;;5.78;;
52724;SDS011;38621;52.830;6.914;2022-11-20T06:29:38;8.32;;;5.70;;
52724;SDS011;38621;52.830;6.914;2022-11-20T06:32:04;9.18;;;5.40;;
52724;SDS011;38621;52.830;6.914;2022-11-20T06:34:29;8.90;;;5.60;;
52724;SDS011;38621;52.830;6.914;2022-11-20T06:36:55;8.38;;;5.28;;
52724;SDS011;38621;52.830;6.914;2022-11-20T06:39:21;8.40;;;5.45;;
52724;SDS011;38621;52.830;6.914;2022-11-20T06:41:46;10.38;;;6.38;;
52724;SDS011;38621;52.830;6.914;2022-11-20T06:44:12;8.30;;;5.72;;
52724;SDS011;38621;52.830;6.914;2022-11-20T06:46:37;8.95;;;5.50;;
52724;SDS011;38621;52.830;6.914;2022-11-20T06:49:03;8.25;;;5.30;;
52724;SDS011;38621;52.830;6.914;2022-11-20T06:51:29;8.55;;;5.32;;
52724;SDS011;38621;52.830;6.914;2022-11-20T06:53:55;7.97;;;5.10;;
52724;SDS011;38621;52.830;6.914;2022-11-20T06:56:20;7.63;;;5.13;;
52724;SDS011;38621;52.830;6.914;2022-11-20T06:58:46;8.30;;;4.88;;
52724;SDS011;38621;52.830;6.914;2022-11-20T07:01:12;8.95;;;5.43;;
52724;SDS011;38621;52.830;6.914;2022-11-20T07:03:39;9.85;;;6.07;;
52724;SDS011;38621;52.830;6.914;2022-11-20T07:06:06;7.45;;;5.20;;
52724;SDS011;38621;52.830;6.914;2022-11-20T07:08:33;9.07;;;5.43;;
52724;SDS011;38621;52.830;6.914;2022-11-20T07:11:00;7.70;;;5.70;;
52724;SDS011;38621;52.830;6.914;2022-11-20T07:13:27;8.27;;;5.60;;
52724;SDS011;38621;52.830;6.914;2022-11-20T07:15:54;7.80;;;5.35;;
52724;SDS011;38621;52.830;6.914;2022-11-20T07:18:23;8.88;;;5.35;;
52724;SDS011;38621;52.830;6.914;2022-11-20T07:20:49;8.55;;;5.70;;
52724;SDS011;38621;52.830;6.914;2022-11-20T07:23:15;10.98;;;5.97;;
52724;SDS011;38621;52.830;6.914;2022-11-20T07:25:40;9.73;;;5.93;;
52724;SDS011;38621;52.830;6.914;2022-11-20T07:28:06;9.05;;;5.80;;
52724;SDS011;38621;52.830;6.914;2022-11-20T07:30:32;8.95;;;5.28;;
52724;SDS011;38621;52.830;6.914;2022-11-20T07:32:57;7.05;;;4.90;;
52724;SDS011;38621;52.830;6.914;2022-11-20T07:35:23;7.28;;;5.38;;
52724;SDS011;38621;52.830;6.914;2022-11-20T07:37:49;8.80;;;5.40;;
52724;SDS011;38621;52.830;6.914;2022-11-20T07:40:15;9.98;;;5.65;;
52724;SDS011;38621;52.830;6.914;2022-11-20T07:42:51;8.07;;;5.57;;
52724;SDS011;38621;52.830;6.914;2022-11-20T07:45:19;10.75;;;6.55;;
52724;SDS011;38621;52.830;6.914;2022-11-20T07:47:46;8.10;;;5.90;;
52724;SDS011;38621;52.830;6.914;2022-11-20T07:50:12;8.32;;;5.72;;
52724;SDS011;38621;52.830;6.914;2022-11-20T07:52:38;7.90;;;5.18;;
52724;SDS011;38621;52.830;6.914;2022-11-20T07:55:04;9.43;;;6.05;;
52724;SDS011;38621;52.830;6.914;2022-11-20T07:57:30;7.93;;;5.55;;
52724;SDS011;38621;52.830;6.914;2022-11-20T07:59:56;10.32;;;6.38;;
52724;SDS011;38621;52.830;6.914;2022-11-20T08:02:21;9.65;;;6.97;;
52724;SDS011;38621;52.830;6.914;2022-11-20T08:04:47;9.38;;;6.53;;
52724;SDS011;38621;52.830;6.914;2022-11-20T08:07:13;7.85;;;5.90;;
52724;SDS011;38621;52.830;6.914;2022-11-20T08:09:38;9.63;;;6.32;;
52724;SDS011;38621;52.830;6.914;2022-11-20T08:12:04;9.45;;;5.97;;
52724;SDS011;38621;52.830;6.914;2022-11-20T08:14:49;9.38;;;5.50;;
52724;SDS011;38621;52.830;6.914;2022-11-20T08:17:15;8.50;;;5.90;;
52724;SDS011;38621;52.830;6.914;2022-11-20T08:19:40;8.05;;;5.40;;
52724;SDS011;38621;52.830;6.914;2022-11-20T08:22:06;8.55;;;5.95;;
52724;SDS011;38621;52.830;6.914;2022-11-20T08:24:32;8.57;;;5.95;;
52724;SDS011;38621;52.830;6.914;2022-11-20T08:26:58;8.50;;;5.40;;
52724;SDS011;38621;52.830;6.914;2022-11-20T08:29:25;9.07;;;5.57;;
52724;SDS011;38621;52.830;6.914;2022-11-20T08:31:52;9.98;;;6.00;;
52724;SDS011;38621;52.830;6.914;2022-11-20T08:34:17;8.88;;;5.50;;
52724;SDS011;38621;52.830;6.914;2022-11-20T08:36:43;9.38;;;5.60;;
52724;SDS011;38621;52.830;6.914;2022-11-20T08:39:11;8.23;;;5.30;;
52724;SDS011;38621;52.830;6.914;2022-11-20T08:41:37;8.90;;;6.18;;
52724;SDS011;38621;52.830;6.914;2022-11-20T08:44:03;8.05;;;5.32;;
52724;SDS011;38621;52.830;6.914;2022-11-20T08:46:35;9.13;;;6.20;;
52724;SDS011;38621;52.830;6.914;2022-11-20T08:49:03;9.45;;;5.50;;
52724;SDS011;38621;52.830;6.914;2022-11-20T08:51:31;7.80;;;5.30;;
52724;SDS011;38621;52.830;6.914;2022-11-20T08:53:57;8.75;;;5.40;;
52724;SDS011;38621;52.830;6.914;2022-11-20T08:56:22;8.85;;;5.68;;
52724;SDS011;38621;52.830;6.914;2022-11-20T08:58:49;7.88;;;5.55;;
52724;SDS011;38621;52.830;6.914;2022-11-20T09:01:15;9.43;;;5.35;;
52724;SDS011;38621;52.830;6.914;2022-11-20T09:03:41;8.93;;;5.50;;
52724;SDS011;38621;52.830;6.914;2022-11-20T09:06:07;8.98;;;6.13;;
52724;SDS011;38621;52.830;6.914;2022-11-20T09:08:33;9.70;;;6.68;;
52724;SDS011;38621;52.830;6.914;2022-11-20T09:11:00;8.73;;;5.40;;
52724;SDS011;38621;52.830;6.914;2022-11-20T09:13:26;7.88;;;5.80;;
52724;SDS011;38621;52.830;6.914;2022-11-20T09:15:56;8.10;;;5.43;;
52724;SDS011;38621;52.830;6.914;2022-11-20T09:18:27;9.40;;;5.68;;
52724;SDS011;38621;52.830;6.914;2022-11-20T09:20:57;9.75;;;5.25;;
52724;SDS011;38621;52.830;6.914;2022-11-20T09:23:24;6.97;;;5.05;;
52724;SDS011;38621;52.830;6.914;2022-11-20T09:25:50;9.13;;;5.40;;
52724;SDS011;38621;52.830;6.914;2022-11-20T09:28:15;14.18;;;5.28;;
52724;SDS011;38621;52.830;6.914;2022-11-20T09:30:43;9.00;;;5.28;;
52724;SDS011;38621;52.830;6.914;2022-11-20T09:33:09;7.70;;;5.20;;
52724;SDS011;38621;52.830;6.914;2022-11-20T09:35:35;9.35;;;5.50;;
52724;SDS011;38621;52.830;6.914;2022-11-20T09:38:07;8.63;;;5.78;;
52724;SDS011;38621;52.830;6.914;2022-11-20T09:40:34;8.70;;;5.30;;
52724;SDS011;38621;52.830;6.914;2022-11-20T09:53:39;8.02;;;4.93;;
52724;SDS011;38621;52.830;6.914;2022-11-20T09:56:15;7.43;;;4.88;;
52724;SDS011;38621;52.830;6.914;2022-11-20T09:58:54;6.53;;;4.85;;
52724;SDS011;38621;52.830;6.914;2022-11-20T10:01:25;7.88;;;4.85;;
52724;SDS011;38621;52.830;6.914;2022-11-20T10:03:56;8.25;;;5.53;;
52724;SDS011;38621;52.830;6.914;2022-11-20T10:06:29;9.02;;;5.18;;
52724;SDS011;38621;52.830;6.914;2022-11-20T10:17:27;8.82;;;5.80;;
52724;SDS011;38621;52.830;6.914;2022-11-20T10:26:06;7.63;;;5.07;;
52724;SDS011;38621;52.830;6.914;2022-11-20T10:31:51;8.27;;;4.93;;
52724;SDS011;38621;52.830;6.914;2022-11-20T10:34:25;8.35;;;5.20;;
52724;SDS011;38621;52.830;6.914;2022-11-20T10:37:16;7.90;;;4.85;;
52724;SDS011;38621;52.830;6.914;2022-11-20T10:39:59;7.22;;;4.72;;
52724;SDS011;38621;52.830;6.914;2022-11-20T10:47:42;6.80;;;4.57;;
52724;SDS011;38621;52.830;6.914;2022-11-20T10:50:09;6.28;;;4.55;;
52724;SDS011;38621;52.830;6.914;2022-11-20T10:52:48;7.60;;;5.25;;
52724;SDS011;38621;52.830;6.914;2022-11-20T10:57:56;7.28;;;4.70;;
52724;SDS011;38621;52.830;6.914;2022-11-20T11:00:37;8.27;;;4.95;;
52724;SDS011;38621;52.830;6.914;2022-11-20T11:03:07;7.38;;;5.20;;
52724;SDS011;38621;52.830;6.914;2022-11-20T11:08:37;7.97;;;4.40;;
52724;SDS011;38621;52.830;6.914;2022-11-20T11:14:08;5.80;;;3.70;;
52724;SDS011;38621;52.830;6.914;2022-11-20T11:16:51;6.57;;;3.95;;
52724;SDS011;38621;52.830;6.914;2022-11-20T11:19:18;5.60;;;4.05;;
52724;SDS011;38621;52.830;6.914;2022-11-20T11:21:54;5.28;;;4.00;;
52724;SDS011;38621;52.830;6.914;2022-11-20T11:29:24;7.55;;;5.07;;
52724;SDS011;38621;52.830;6.914;2022-11-20T11:32:07;7.13;;;4.90;;
52724;SDS011;38621;52.830;6.914;2022-11-20T11:34:37;7.97;;;5.22;;
52724;SDS011;38621;52.830;6.914;2022-11-20T11:37:03;8.45;;;5.05;;
52724;SDS011;38621;52.830;6.914;2022-11-20T11:39:35;8.05;;;5.35;;
52724;SDS011;38621;52.830;6.914;2022-11-20T11:42:05;8.35;;;5.60;;
52724;SDS011;38621;52.830;6.914;2022-11-20T11:44:33;8.52;;;5.22;;
52724;SDS011;38621;52.830;6.914;2022-11-20T11:47:22;8.27;;;5.60;;
52724;SDS011;38621;52.830;6.914;2022-11-20T11:53:17;7.72;;;5.07;;
52724;SDS011;38621;52.830;6.914;2022-11-20T11:55:44;8.13;;;5.13;;
52724;SDS011;38621;52.830;6.914;2022-11-20T12:07:00;11.10;;;8.43;;
52724;SDS011;38621;52.830;6.914;2022-11-20T12:09:34;8.98;;;5.82;;
52724;SDS011;38621;52.830;6.914;2022-11-20T12:12:15;9.82;;;5.55;;
52724;SDS011;38621;52.830;6.914;2022-11-20T12:14:46;8.57;;;4.95;;
52724;SDS011;38621;52.830;6.914;2022-11-20T12:17:15;6.65;;;4.20;;
52724;SDS011;38621;52.830;6.914;2022-11-20T12:19:42;5.30;;;3.88;;
52724;SDS011;38621;52.830;6.914;2022-11-20T12:22:24;5.93;;;3.72;;
52724;SDS011;38621;52.830;6.914;2022-11-20T12:25:24;5.28;;;3.60;;
52724;SDS011;38621;52.830;6.914;2022-11-20T12:30:55;5.72;;;4.00;;
52724;SDS011;38621;52.830;6.914;2022-11-20T12:41:40;5.70;;;3.40;;
52724;SDS011;38621;52.830;6.914;2022-11-20T12:44:57;4.95;;;3.63;;
52724;SDS011;38621;52.830;6.914;2022-11-20T12:50:41;5.13;;;3.70;;
52724;SDS011;38621;52.830;6.914;2022-11-20T13:01:20;5.70;;;3.80;;
52724;SDS011;38621;52.830;6.914;2022-11-20T13:06:45;6.72;;;4.68;;
52724;SDS011;38621;52.830;6.914;2022-11-20T13:09:13;5.32;;;3.78;;
52724;SDS011;38621;52.830;6.914;2022-11-20T13:11:47;5.15;;;3.55;;
52724;SDS011;38621;52.830;6.914;2022-11-20T13:17:14;6.53;;;3.65;;
52724;SDS011;38621;52.830;6.914;2022-11-20T13:19:52;6.32;;;4.15;;
52724;SDS011;38621;52.830;6.914;2022-11-20T13:22:26;5.57;;;3.95;;
52724;SDS011;38621;52.830;6.914;2022-11-20T13:24:52;6.32;;;4.43;;
52724;SDS011;38621;52.830;6.914;2022-11-20T13:27:19;5.95;;;4.00;;
52724;SDS011;38621;52.830;6.914;2022-11-20T13:33:22;6.45;;;4.03;;
52724;SDS011;38621;52.830;6.914;2022-11-20T13:35:54;6.68;;;4.45;;
52724;SDS011;38621;52.830;6.914;2022-11-20T13:38:25;6.57;;;4.40;;
52724;SDS011;38621;52.830;6.914;2022-11-20T13:43:35;6.50;;;4.63;;
52724;SDS011;38621;52.830;6.914;2022-11-20T13:46:04;7.90;;;4.75;;
52724;SDS011;38621;52.830;6.914;2022-11-20T13:48:32;7.72;;;4.88;;
52724;SDS011;38621;52.830;6.914;2022-11-20T13:53:52;7.57;;;5.05;;
52724;SDS011;38621;52.830;6.914;2022-11-20T13:57:03;8.88;;;4.85;;
52724;SDS011;38621;52.830;6.914;2022-11-20T13:59:40;7.65;;;4.85;;
52724;SDS011;38621;52.830;6.914;2022-11-20T14:02:18;8.30;;;5.13;;
52724;SDS011;38621;52.830;6.914;2022-11-20T14:04:51;8.15;;;5.68;;
52724;SDS011;38621;52.830;6.914;2022-11-20T14:07:20;8.63;;;5.20;;
52724;SDS011;38621;52.830;6.914;2022-11-20T14:09:50;7.15;;;5.70;;
52724;SDS011;38621;52.830;6.914;2022-11-20T14:12:18;9.23;;;6.30;;
52724;SDS011;38621;52.830;6.914;2022-11-20T14:14:48;8.75;;;5.20;;
52724;SDS011;38621;52.830;6.914;2022-11-20T14:17:22;8.57;;;5.43;;
52724;SDS011;38621;52.830;6.914;2022-11-20T14:19:51;8.07;;;6.07;;
52724;SDS011;38621;52.830;6.914;2022-11-20T14:24:47;8.98;;;5.97;;
52724;SDS011;38621;52.830;6.914;2022-11-20T14:27:25;9.82;;;6.68;;
52724;SDS011;38621;52.830;6.914;2022-11-20T14:29:51;9.38;;;6.18;;
52724;SDS011;38621;52.830;6.914;2022-11-20T14:32:17;10.85;;;7.57;;
52724;SDS011;38621;52.830;6.914;2022-11-20T14:34:45;9.70;;;6.60;;
52724;SDS011;38621;52.830;6.914;2022-11-20T14:37:13;8.90;;;6.30;;
52724;SDS011;38621;52.830;6.914;2022-11-20T14:39:49;10.90;;;6.25;;
52724;SDS011;38621;52.830;6.914;2022-11-20T14:42:18;9.00;;;6.35;;
52724;SDS011;38621;52.830;6.914;2022-11-20T14:44:49;9.18;;;6.93;;
52724;SDS011;38621;52.830;6.914;2022-11-20T14:47:21;9.98;;;6.57;;
52724;SDS011;38621;52.830;6.914;2022-11-20T14:49:49;9.18;;;6.63;;
52724;SDS011;38621;52.830;6.914;2022-11-20T14:52:17;10.30;;;6.53;;
52724;SDS011;38621;52.830;6.914;2022-11-20T14:54:46;9.20;;;6.70;;
52724;SDS011;38621;52.830;6.914;2022-11-20T14:57:21;9.20;;;6.22;;
52724;SDS011;38621;52.830;6.914;2022-11-20T15:00:03;9.32;;;6.70;;
52724;SDS011;38621;52.830;6.914;2022-11-20T15:02:29;9.02;;;6.38;;
52724;SDS011;38621;52.830;6.914;2022-11-20T15:04:59;10.23;;;6.35;;
52724;SDS011;38621;52.830;6.914;2022-11-20T15:07:30;8.98;;;6.63;;
52724;SDS011;38621;52.830;6.914;2022-11-20T15:10:05;11.15;;;7.60;;
52724;SDS011;38621;52.830;6.914;2022-11-20T15:12:34;11.25;;;7.03;;
52724;SDS011;38621;52.830;6.914;2022-11-20T15:15:03;9.82;;;6.68;;
52724;SDS011;38621;52.830;6.914;2022-11-20T15:17:30;9.50;;;7.10;;
52724;SDS011;38621;52.830;6.914;2022-11-20T15:19:57;10.38;;;6.63;;
52724;SDS011;38621;52.830;6.914;2022-11-20T15:22:25;10.48;;;7.38;;
52724;SDS011;38621;52.830;6.914;2022-11-20T15:24:50;10.90;;;6.55;;
52724;SDS011;38621;52.830;6.914;2022-11-20T15:27:16;10.65;;;6.93;;
52724;SDS011;38621;52.830;6.914;2022-11-20T15:29:42;8.57;;;6.00;;
52724;SDS011;38621;52.830;6.914;2022-11-20T15:32:08;10.30;;;7.65;;
52724;SDS011;38621;52.830;6.914;2022-11-20T15:34:34;10.52;;;7.35;;
52724;SDS011;38621;52.830;6.914;2022-11-20T15:36:59;8.70;;;6.75;;
52724;SDS011;38621;52.830;6.914;2022-11-20T15:39:25;10.82;;;7.75;;
52724;SDS011;38621;52.830;6.914;2022-11-20T15:41:51;13.70;;;8.10;;
52724;SDS011;38621;52.830;6.914;2022-11-20T15:44:16;9.85;;;7.40;;
52724;SDS011;38621;52.830;6.914;2022-11-20T15:46:42;10.95;;;7.22;;
52724;SDS011;38621;52.830;6.914;2022-11-20T15:49:13;9.48;;;6.25;;
52724;SDS011;38621;52.830;6.914;2022-11-20T15:51:44;18.58;;;10.15;;
52724;SDS011;38621;52.830;6.914;2022-11-20T15:54:16;17.60;;;10.43;;
52724;SDS011;38621;52.830;6.914;2022-11-20T15:56:44;13.77;;;8.75;;
52724;SDS011;38621;52.830;6.914;2022-11-20T15:59:11;16.17;;;9.65;;
52724;SDS011;38621;52.830;6.914;2022-11-20T16:01:39;21.17;;;13.55;;
52724;SDS011;38621;52.830;6.914;2022-11-20T16:04:09;10.13;;;7.18;;
52724;SDS011;38621;52.830;6.914;2022-11-20T16:06:39;9.88;;;7.13;;
52724;SDS011;38621;52.830;6.914;2022-11-20T16:09:05;10.50;;;6.93;;
52724;SDS011;38621;52.830;6.914;2022-11-20T16:11:31;9.82;;;6.65;;
52724;SDS011;38621;52.830;6.914;2022-11-20T16:13:57;8.93;;;6.13;;
52724;SDS011;38621;52.830;6.914;2022-11-20T16:16:41;11.98;;;8.75;;
52724;SDS011;38621;52.830;6.914;2022-11-20T16:19:14;9.35;;;6.85;;
52724;SDS011;38621;52.830;6.914;2022-11-20T16:21:41;8.20;;;6.07;;
52724;SDS011;38621;52.830;6.914;2022-11-20T16:24:09;9.02;;;6.30;;
52724;SDS011;38621;52.830;6.914;2022-11-20T16:26:37;10.55;;;7.30;;
52724;SDS011;38621;52.830;6.914;2022-11-20T16:29:04;11.30;;;7.10;;
52724;SDS011;38621;52.830;6.914;2022-11-20T16:31:30;8.68;;;6.20;;
52724;SDS011;38621;52.830;6.914;2022-11-20T16:33:58;11.05;;;7.47;;
52724;SDS011;38621;52.830;6.914;2022-11-20T16:36:26;10.20;;;6.90;;
52724;SDS011;38621;52.830;6.914;2022-11-20T16:38:57;10.40;;;6.63;;
52724;SDS011;38621;52.830;6.914;2022-11-20T16:41:24;10.30;;;7.05;;
52724;SDS011;38621;52.830;6.914;2022-11-20T16:43:52;10.63;;;6.68;;
52724;SDS011;38621;52.830;6.914;2022-11-20T16:46:22;9.75;;;7.18;;